sensor_id;sensor_type;location;lat;lon;timestamp;P1;durP1;ratioP1;P2;durP2;ratioP2
30062;SDS011;16889;67.864;24.990;2023-03-05T00:02:51;8.57;;;1.60;;
30062;SDS011;16889;67.864;24.990;2023-03-05T00:07:37;5.10;;;1.70;;
30062;SDS011;16889;67.864;24.990;2023-03-05T00:12:23;4.38;;;1.70;;
30062;SDS011;16889;67.864;24.990;2023-03-05T00:17:09;3.08;;;1.55;;
30062;SDS011;16889;67.864;24.990;2023-03-05T00:21:55;10.65;;;2.10;;
30062;SDS011;16889;67.864;24.990;2023-03-05T00:26:41;8.02;;;2.00;;
30062;SDS011;16889;67.864;24.990;2023-03-05T00:31:28;4.13;;;1.70;;
30062;SDS011;16889;67.864;24.990;2023-03-05T00:36:16;7.18;;;2.35;;
30062;SDS011;16889;67.864;24.990;2023-03-05T00:41:02;6.03;;;2.20;;
30062;SDS011;16889;67.864;24.990;2023-03-05T00:45:48;4.30;;;1.93;;
30062;SDS011;16889;67.864;24.990;2023-03-05T00:50:34;10.95;;;2.17;;
30062;SDS011;16889;67.864;24.990;2023-03-05T00:55:20;8.27;;;1.92;;
30062;SDS011;16889;67.864;24.990;2023-03-05T01:00:07;13.25;;;2.60;;
30062;SDS011;16889;67.864;24.990;2023-03-05T01:04:54;5.15;;;2.10;;
30062;SDS011;16889;67.864;24.990;2023-03-05T01:09:40;5.90;;;2.40;;
30062;SDS011;16889;67.864;24.990;2023-03-05T01:14:26;5.63;;;2.25;;
30062;SDS011;16889;67.864;24.990;2023-03-05T01:19:13;5.82;;;2.20;;
30062;SDS011;16889;67.864;24.990;2023-03-05T01:24:00;6.15;;;2.50;;
30062;SDS011;16889;67.864;24.990;2023-03-05T01:28:48;8.68;;;2.25;;
30062;SDS011;16889;67.864;24.990;2023-03-05T01:33:34;8.20;;;2.72;;
30062;SDS011;16889;67.864;24.990;2023-03-05T01:38:20;7.93;;;2.22;;
30062;SDS011;16889;67.864;24.990;2023-03-05T01:47:57;6.10;;;2.00;;
30062;SDS011;16889;67.864;24.990;2023-03-05T01:52:48;4.63;;;1.90;;
30062;SDS011;16889;67.864;24.990;2023-03-05T01:57:41;5.03;;;1.75;;
30062;SDS011;16889;67.864;24.990;2023-03-05T02:02:31;4.35;;;1.63;;
30062;SDS011;16889;67.864;24.990;2023-03-05T02:07:18;9.10;;;1.67;;
30062;SDS011;16889;67.864;24.990;2023-03-05T02:12:04;7.45;;;2.00;;
30062;SDS011;16889;67.864;24.990;2023-03-05T02:16:51;3.58;;;1.65;;
30062;SDS011;16889;67.864;24.990;2023-03-05T02:21:38;4.55;;;1.77;;
30062;SDS011;16889;67.864;24.990;2023-03-05T02:26:30;3.70;;;1.45;;
30062;SDS011;16889;67.864;24.990;2023-03-05T02:31:16;4.93;;;1.67;;
30062;SDS011;16889;67.864;24.990;2023-03-05T02:36:05;2.78;;;1.67;;
30062;SDS011;16889;67.864;24.990;2023-03-05T02:40:52;4.28;;;1.60;;
30062;SDS011;16889;67.864;24.990;2023-03-05T02:45:38;6.47;;;2.13;;
30062;SDS011;16889;67.864;24.990;2023-03-05T02:50:25;2.33;;;1.23;;
30062;SDS011;16889;67.864;24.990;2023-03-05T02:55:12;5.40;;;1.10;;
30062;SDS011;16889;67.864;24.990;2023-03-05T02:59:58;3.15;;;1.00;;
30062;SDS011;16889;67.864;24.990;2023-03-05T03:04:44;3.03;;;1.00;;
30062;SDS011;16889;67.864;24.990;2023-03-05T03:09:32;4.20;;;1.50;;
30062;SDS011;16889;67.864;24.990;2023-03-05T03:14:20;2.30;;;0.90;;
30062;SDS011;16889;67.864;24.990;2023-03-05T03:19:06;6.30;;;1.00;;
30062;SDS011;16889;67.864;24.990;2023-03-05T03:23:52;5.03;;;1.00;;
30062;SDS011;16889;67.864;24.990;2023-03-05T03:28:38;3.17;;;1.17;;
30062;SDS011;16889;67.864;24.990;2023-03-05T03:33:24;8.90;;;1.48;;
30062;SDS011;16889;67.864;24.990;2023-03-05T03:38:10;1.10;;;0.70;;
30062;SDS011;16889;67.864;24.990;2023-03-05T03:47:43;11.43;;;0.98;;
30062;SDS011;16889;67.864;24.990;2023-03-05T03:52:29;5.25;;;0.68;;
30062;SDS011;16889;67.864;24.990;2023-03-05T03:57:15;3.50;;;0.85;;
30062;SDS011;16889;67.864;24.990;2023-03-05T04:02:01;3.20;;;0.80;;
30062;SDS011;16889;67.864;24.990;2023-03-05T04:06:47;3.75;;;0.80;;
30062;SDS011;16889;67.864;24.990;2023-03-05T04:11:34;9.73;;;0.73;;
30062;SDS011;16889;67.864;24.990;2023-03-05T04:16:21;1.23;;;0.50;;
30062;SDS011;16889;67.864;24.990;2023-03-05T04:21:08;2.63;;;0.60;;
30062;SDS011;16889;67.864;24.990;2023-03-05T04:25:54;1.80;;;0.90;;
30062;SDS011;16889;67.864;24.990;2023-03-05T04:30:40;4.43;;;0.63;;
30062;SDS011;16889;67.864;24.990;2023-03-05T04:35:26;4.90;;;0.65;;
30062;SDS011;16889;67.864;24.990;2023-03-05T04:40:12;4.60;;;0.95;;
30062;SDS011;16889;67.864;24.990;2023-03-05T04:44:58;1.30;;;0.47;;
30062;SDS011;16889;67.864;24.990;2023-03-05T04:49:44;3.50;;;0.80;;
30062;SDS011;16889;67.864;24.990;2023-03-05T04:54:30;3.85;;;0.65;;
30062;SDS011;16889;67.864;24.990;2023-03-05T04:59:16;3.88;;;0.82;;
30062;SDS011;16889;67.864;24.990;2023-03-05T05:04:02;2.97;;;0.63;;
30062;SDS011;16889;67.864;24.990;2023-03-05T05:08:48;4.22;;;0.80;;
30062;SDS011;16889;67.864;24.990;2023-03-05T05:13:34;8.70;;;0.93;;
30062;SDS011;16889;67.864;24.990;2023-03-05T05:18:20;4.97;;;0.95;;
30062;SDS011;16889;67.864;24.990;2023-03-05T05:23:06;5.37;;;0.50;;
30062;SDS011;16889;67.864;24.990;2023-03-05T05:27:52;4.03;;;0.60;;
30062;SDS011;16889;67.864;24.990;2023-03-05T05:32:38;3.45;;;0.73;;
30062;SDS011;16889;67.864;24.990;2023-03-05T05:37:24;4.75;;;0.70;;
30062;SDS011;16889;67.864;24.990;2023-03-05T05:42:11;2.25;;;0.52;;
30062;SDS011;16889;67.864;24.990;2023-03-05T05:46:57;4.28;;;0.70;;
30062;SDS011;16889;67.864;24.990;2023-03-05T05:51:43;4.65;;;0.63;;
30062;SDS011;16889;67.864;24.990;2023-03-05T05:56:29;9.10;;;1.02;;
30062;SDS011;16889;67.864;24.990;2023-03-05T06:06:13;4.53;;;0.75;;
30062;SDS011;16889;67.864;24.990;2023-03-05T06:11:01;2.65;;;0.50;;
30062;SDS011;16889;67.864;24.990;2023-03-05T06:16:10;2.15;;;0.60;;
30062;SDS011;16889;67.864;24.990;2023-03-05T06:20:56;4.50;;;0.65;;
30062;SDS011;16889;67.864;24.990;2023-03-05T06:25:45;3.13;;;0.60;;
30062;SDS011;16889;67.864;24.990;2023-03-05T06:30:31;2.78;;;0.80;;
30062;SDS011;16889;67.864;24.990;2023-03-05T06:35:17;4.65;;;0.70;;
30062;SDS011;16889;67.864;24.990;2023-03-05T06:40:03;2.53;;;0.55;;
30062;SDS011;16889;67.864;24.990;2023-03-05T06:44:49;1.85;;;0.50;;
30062;SDS011;16889;67.864;24.990;2023-03-05T06:49:35;4.38;;;0.70;;
30062;SDS011;16889;67.864;24.990;2023-03-05T06:54:22;5.85;;;0.55;;
30062;SDS011;16889;67.864;24.990;2023-03-05T06:59:09;3.33;;;0.90;;
30062;SDS011;16889;67.864;24.990;2023-03-05T07:03:56;6.03;;;0.65;;
30062;SDS011;16889;67.864;24.990;2023-03-05T07:08:47;5.57;;;0.60;;
30062;SDS011;16889;67.864;24.990;2023-03-05T07:13:33;2.92;;;0.60;;
30062;SDS011;16889;67.864;24.990;2023-03-05T07:18:19;2.25;;;0.60;;
30062;SDS011;16889;67.864;24.990;2023-03-05T07:23:08;5.10;;;0.70;;
30062;SDS011;16889;67.864;24.990;2023-03-05T07:27:55;4.68;;;0.70;;
30062;SDS011;16889;67.864;24.990;2023-03-05T07:32:41;4.30;;;0.80;;
30062;SDS011;16889;67.864;24.990;2023-03-05T07:37:27;4.38;;;0.95;;
30062;SDS011;16889;67.864;24.990;2023-03-05T07:42:13;5.47;;;0.73;;
30062;SDS011;16889;67.864;24.990;2023-03-05T07:46:59;1.42;;;0.60;;
30062;SDS011;16889;67.864;24.990;2023-03-05T07:51:45;5.30;;;1.48;;
30062;SDS011;16889;67.864;24.990;2023-03-05T07:56:31;3.00;;;0.80;;
30062;SDS011;16889;67.864;24.990;2023-03-05T08:01:22;2.95;;;0.73;;
30062;SDS011;16889;67.864;24.990;2023-03-05T08:06:08;3.10;;;0.90;;
30062;SDS011;16889;67.864;24.990;2023-03-05T08:10:56;8.73;;;0.70;;
30062;SDS011;16889;67.864;24.990;2023-03-05T08:15:46;3.00;;;0.63;;
30062;SDS011;16889;67.864;24.990;2023-03-05T08:20:35;3.25;;;1.20;;
30062;SDS011;16889;67.864;24.990;2023-03-05T08:25:21;6.10;;;0.80;;
30062;SDS011;16889;67.864;24.990;2023-03-05T08:30:09;2.83;;;0.80;;
30062;SDS011;16889;67.864;24.990;2023-03-05T08:34:57;6.03;;;0.73;;
30062;SDS011;16889;67.864;24.990;2023-03-05T08:39:43;3.55;;;0.95;;
30062;SDS011;16889;67.864;24.990;2023-03-05T08:44:29;5.68;;;0.90;;
30062;SDS011;16889;67.864;24.990;2023-03-05T08:49:15;6.35;;;0.80;;
30062;SDS011;16889;67.864;24.990;2023-03-05T08:54:01;3.30;;;0.80;;
30062;SDS011;16889;67.864;24.990;2023-03-05T08:58:50;5.47;;;0.63;;
30062;SDS011;16889;67.864;24.990;2023-03-05T09:03:37;5.70;;;0.85;;
30062;SDS011;16889;67.864;24.990;2023-03-05T09:08:23;3.40;;;0.70;;
30062;SDS011;16889;67.864;24.990;2023-03-05T09:13:09;3.65;;;0.80;;
30062;SDS011;16889;67.864;24.990;2023-03-05T09:17:56;8.75;;;1.10;;
30062;SDS011;16889;67.864;24.990;2023-03-05T09:22:43;4.20;;;0.93;;
30062;SDS011;16889;67.864;24.990;2023-03-05T09:27:31;4.47;;;0.80;;
30062;SDS011;16889;67.864;24.990;2023-03-05T09:32:21;4.15;;;0.60;;
30062;SDS011;16889;67.864;24.990;2023-03-05T09:37:07;3.95;;;0.73;;
30062;SDS011;16889;67.864;24.990;2023-03-05T09:52:18;3.28;;;0.63;;
30062;SDS011;16889;67.864;24.990;2023-03-05T09:57:18;7.88;;;1.10;;
30062;SDS011;16889;67.864;24.990;2023-03-05T10:02:27;3.10;;;0.60;;
30062;SDS011;16889;67.864;24.990;2023-03-05T10:12:17;4.50;;;0.75;;
30062;SDS011;16889;67.864;24.990;2023-03-05T10:22:34;8.00;;;0.80;;
30062;SDS011;16889;67.864;24.990;2023-03-05T10:47:31;8.90;;;1.20;;
30062;SDS011;16889;67.864;24.990;2023-03-05T10:52:40;2.28;;;0.50;;
30062;SDS011;16889;67.864;24.990;2023-03-05T10:57:32;6.80;;;1.00;;
30062;SDS011;16889;67.864;24.990;2023-03-05T11:02:19;10.30;;;0.93;;
30062;SDS011;16889;67.864;24.990;2023-03-05T11:07:51;4.70;;;0.70;;
30062;SDS011;16889;67.864;24.990;2023-03-05T11:12:19;3.92;;;0.95;;
30062;SDS011;16889;67.864;24.990;2023-03-05T11:18:02;8.05;;;0.93;;
30062;SDS011;16889;67.864;24.990;2023-03-05T11:22:26;8.95;;;0.93;;
30062;SDS011;16889;67.864;24.990;2023-03-05T11:27:29;3.97;;;0.63;;
30062;SDS011;16889;67.864;24.990;2023-03-05T11:32:21;6.32;;;0.88;;
30062;SDS011;16889;67.864;24.990;2023-03-05T11:37:09;10.07;;;1.38;;
30062;SDS011;16889;67.864;24.990;2023-03-05T11:42:16;3.22;;;0.75;;
30062;SDS011;16889;67.864;24.990;2023-03-05T11:52:11;8.32;;;0.60;;
30062;SDS011;16889;67.864;24.990;2023-03-05T11:57:08;5.82;;;0.70;;
30062;SDS011;16889;67.864;24.990;2023-03-05T12:01:59;4.60;;;0.70;;
30062;SDS011;16889;67.864;24.990;2023-03-05T12:06:53;2.63;;;0.82;;
30062;SDS011;16889;67.864;24.990;2023-03-05T12:11:44;8.45;;;0.98;;
30062;SDS011;16889;67.864;24.990;2023-03-05T12:21:35;2.75;;;0.77;;
30062;SDS011;16889;67.864;24.990;2023-03-05T12:31:48;7.32;;;0.80;;
30062;SDS011;16889;67.864;24.990;2023-03-05T12:36:35;5.22;;;0.80;;
30062;SDS011;16889;67.864;24.990;2023-03-05T12:46:24;5.15;;;0.80;;
30062;SDS011;16889;67.864;24.990;2023-03-05T12:51:13;3.70;;;1.00;;
30062;SDS011;16889;67.864;24.990;2023-03-05T12:56:15;6.90;;;0.80;;
30062;SDS011;16889;67.864;24.990;2023-03-05T13:05:56;3.85;;;0.50;;
30062;SDS011;16889;67.864;24.990;2023-03-05T13:10:54;1.67;;;0.80;;
30062;SDS011;16889;67.864;24.990;2023-03-05T13:15:46;3.35;;;0.60;;
30062;SDS011;16889;67.864;24.990;2023-03-05T13:20:37;7.32;;;0.60;;
30062;SDS011;16889;67.864;24.990;2023-03-05T13:25:24;6.40;;;0.70;;
30062;SDS011;16889;67.864;24.990;2023-03-05T13:30:23;7.78;;;0.57;;
30062;SDS011;16889;67.864;24.990;2023-03-05T13:35:12;3.40;;;0.77;;
30062;SDS011;16889;67.864;24.990;2023-03-05T13:39:59;3.60;;;0.57;;
30062;SDS011;16889;67.864;24.990;2023-03-05T13:45:00;4.90;;;0.50;;
30062;SDS011;16889;67.864;24.990;2023-03-05T13:49:54;4.53;;;0.82;;
30062;SDS011;16889;67.864;24.990;2023-03-05T13:54:45;4.07;;;0.95;;
30062;SDS011;16889;67.864;24.990;2023-03-05T13:59:32;17.85;;;1.02;;
30062;SDS011;16889;67.864;24.990;2023-03-05T14:04:21;7.32;;;0.50;;
30062;SDS011;16889;67.864;24.990;2023-03-05T14:14:36;1.73;;;0.50;;
30062;SDS011;16889;67.864;24.990;2023-03-05T14:19:33;2.17;;;0.60;;
30062;SDS011;16889;67.864;24.990;2023-03-05T14:24:22;0.98;;;0.52;;
30062;SDS011;16889;67.864;24.990;2023-03-05T14:34:03;1.98;;;0.60;;
30062;SDS011;16889;67.864;24.990;2023-03-05T14:38:50;1.30;;;0.50;;
30062;SDS011;16889;67.864;24.990;2023-03-05T14:43:37;9.93;;;1.25;;
30062;SDS011;16889;67.864;24.990;2023-03-05T14:48:23;4.53;;;0.70;;
30062;SDS011;16889;67.864;24.990;2023-03-05T14:53:13;12.25;;;0.85;;
30062;SDS011;16889;67.864;24.990;2023-03-05T14:58:03;1.98;;;0.50;;
30062;SDS011;16889;67.864;24.990;2023-03-05T15:02:59;3.35;;;0.60;;
30062;SDS011;16889;67.864;24.990;2023-03-05T15:07:45;5.57;;;0.60;;
30062;SDS011;16889;67.864;24.990;2023-03-05T15:12:32;9.97;;;1.10;;
30062;SDS011;16889;67.864;24.990;2023-03-05T15:17:22;8.98;;;0.90;;
30062;SDS011;16889;67.864;24.990;2023-03-05T15:22:16;4.53;;;0.93;;
30062;SDS011;16889;67.864;24.990;2023-03-05T15:27:02;4.43;;;0.70;;
30062;SDS011;16889;67.864;24.990;2023-03-05T15:31:51;5.05;;;0.95;;
30062;SDS011;16889;67.864;24.990;2023-03-05T15:36:37;7.15;;;1.20;;
30062;SDS011;16889;67.864;24.990;2023-03-05T15:41:23;5.15;;;0.60;;
30062;SDS011;16889;67.864;24.990;2023-03-05T15:46:09;1.90;;;0.40;;
30062;SDS011;16889;67.864;24.990;2023-03-05T15:50:55;7.50;;;1.23;;
30062;SDS011;16889;67.864;24.990;2023-03-05T15:55:42;6.65;;;0.80;;
30062;SDS011;16889;67.864;24.990;2023-03-05T16:00:29;5.22;;;0.70;;
30062;SDS011;16889;67.864;24.990;2023-03-05T16:05:16;13.55;;;0.93;;
30062;SDS011;16889;67.864;24.990;2023-03-05T16:10:02;22.67;;;1.63;;
30062;SDS011;16889;67.864;24.990;2023-03-05T16:14:50;4.82;;;0.80;;
30062;SDS011;16889;67.864;24.990;2023-03-05T16:24:24;3.85;;;0.85;;
30062;SDS011;16889;67.864;24.990;2023-03-05T16:29:10;21.80;;;0.93;;
30062;SDS011;16889;67.864;24.990;2023-03-05T16:33:56;4.00;;;0.50;;
30062;SDS011;16889;67.864;24.990;2023-03-05T16:38:42;4.23;;;0.60;;
30062;SDS011;16889;67.864;24.990;2023-03-05T16:43:28;25.67;;;1.10;;
30062;SDS011;16889;67.864;24.990;2023-03-05T16:48:14;10.45;;;0.60;;
30062;SDS011;16889;67.864;24.990;2023-03-05T16:53:00;8.67;;;0.70;;
30062;SDS011;16889;67.864;24.990;2023-03-05T16:57:46;21.60;;;1.00;;
30062;SDS011;16889;67.864;24.990;2023-03-05T17:02:32;0.60;;;0.43;;
30062;SDS011;16889;67.864;24.990;2023-03-05T17:07:18;3.33;;;0.50;;
30062;SDS011;16889;67.864;24.990;2023-03-05T17:12:04;7.83;;;0.90;;
30062;SDS011;16889;67.864;24.990;2023-03-05T17:16:50;4.80;;;0.73;;
30062;SDS011;16889;67.864;24.990;2023-03-05T17:21:36;10.40;;;0.90;;
30062;SDS011;16889;67.864;24.990;2023-03-05T17:26:23;1.92;;;0.68;;
30062;SDS011;16889;67.864;24.990;2023-03-05T17:31:09;1.60;;;0.65;;
30062;SDS011;16889;67.864;24.990;2023-03-05T17:35:55;5.03;;;0.68;;
30062;SDS011;16889;67.864;24.990;2023-03-05T17:40:41;7.95;;;0.90;;
30062;SDS011;16889;67.864;24.990;2023-03-05T17:45:27;9.90;;;4.77;;
30062;SDS011;16889;67.864;24.990;2023-03-05T17:50:13;52.40;;;23.63;;
30062;SDS011;16889;67.864;24.990;2023-03-05T17:54:59;26.45;;;11.13;;
30062;SDS011;16889;67.864;24.990;2023-03-05T17:59:45;45.15;;;19.65;;
30062;SDS011;16889;67.864;24.990;2023-03-05T18:04:32;98.90;;;37.83;;
30062;SDS011;16889;67.864;24.990;2023-03-05T18:09:18;85.15;;;30.15;;
30062;SDS011;16889;67.864;24.990;2023-03-05T18:14:04;99.68;;;31.45;;
30062;SDS011;16889;67.864;24.990;2023-03-05T18:18:50;6.32;;;2.03;;
30062;SDS011;16889;67.864;24.990;2023-03-05T18:28:23;2.10;;;0.80;;
30062;SDS011;16889;67.864;24.990;2023-03-05T18:33:16;6.63;;;0.73;;
30062;SDS011;16889;67.864;24.990;2023-03-05T18:38:04;23.85;;;9.13;;
30062;SDS011;16889;67.864;24.990;2023-03-05T18:42:50;23.25;;;8.32;;
30062;SDS011;16889;67.864;24.990;2023-03-05T18:47:36;9.98;;;4.07;;
30062;SDS011;16889;67.864;24.990;2023-03-05T18:52:25;6.10;;;1.60;;
30062;SDS011;16889;67.864;24.990;2023-03-05T18:57:12;3.38;;;0.70;;
30062;SDS011;16889;67.864;24.990;2023-03-05T19:01:58;8.38;;;0.93;;
30062;SDS011;16889;67.864;24.990;2023-03-05T19:06:44;2.58;;;1.00;;
30062;SDS011;16889;67.864;24.990;2023-03-05T19:11:30;2.00;;;1.17;;
30062;SDS011;16889;67.864;24.990;2023-03-05T19:16:17;4.03;;;1.00;;
30062;SDS011;16889;67.864;24.990;2023-03-05T19:21:05;2.85;;;1.02;;
30062;SDS011;16889;67.864;24.990;2023-03-05T19:25:52;1.63;;;0.95;;
30062;SDS011;16889;67.864;24.990;2023-03-05T19:30:38;2.95;;;0.90;;
30062;SDS011;16889;67.864;24.990;2023-03-05T19:35:24;6.95;;;0.93;;
30062;SDS011;16889;67.864;24.990;2023-03-05T19:40:11;1.48;;;0.75;;
30062;SDS011;16889;67.864;24.990;2023-03-05T19:44:58;2.00;;;0.90;;
30062;SDS011;16889;67.864;24.990;2023-03-05T19:49:44;5.82;;;0.90;;
30062;SDS011;16889;67.864;24.990;2023-03-05T19:54:29;2.17;;;0.85;;
30062;SDS011;16889;67.864;24.990;2023-03-05T19:59:16;4.88;;;0.98;;
30062;SDS011;16889;67.864;24.990;2023-03-05T20:04:03;4.35;;;0.88;;
30062;SDS011;16889;67.864;24.990;2023-03-05T20:08:50;2.90;;;0.63;;
30062;SDS011;16889;67.864;24.990;2023-03-05T20:18:22;4.70;;;0.70;;
30062;SDS011;16889;67.864;24.990;2023-03-05T20:23:08;6.40;;;0.63;;
30062;SDS011;16889;67.864;24.990;2023-03-05T20:27:54;5.65;;;0.65;;
30062;SDS011;16889;67.864;24.990;2023-03-05T20:37:26;14.53;;;1.40;;
30062;SDS011;16889;67.864;24.990;2023-03-05T20:42:24;3.33;;;1.02;;
30062;SDS011;16889;67.864;24.990;2023-03-05T20:47:09;14.85;;;0.82;;
30062;SDS011;16889;67.864;24.990;2023-03-05T20:52:16;7.03;;;0.88;;
30062;SDS011;16889;67.864;24.990;2023-03-05T20:57:02;7.95;;;1.20;;
30062;SDS011;16889;67.864;24.990;2023-03-05T21:01:48;2.83;;;0.70;;
30062;SDS011;16889;67.864;24.990;2023-03-05T21:06:34;3.20;;;0.73;;
30062;SDS011;16889;67.864;24.990;2023-03-05T21:11:21;6.93;;;0.75;;
30062;SDS011;16889;67.864;24.990;2023-03-05T21:16:07;7.95;;;0.70;;
30062;SDS011;16889;67.864;24.990;2023-03-05T21:21:07;6.22;;;1.20;;
30062;SDS011;16889;67.864;24.990;2023-03-05T21:25:53;0.90;;;0.70;;
30062;SDS011;16889;67.864;24.990;2023-03-05T21:30:40;4.28;;;0.80;;
30062;SDS011;16889;67.864;24.990;2023-03-05T21:35:28;2.13;;;0.90;;
30062;SDS011;16889;67.864;24.990;2023-03-05T21:40:17;2.22;;;0.80;;
30062;SDS011;16889;67.864;24.990;2023-03-05T21:45:04;1.70;;;0.60;;
30062;SDS011;16889;67.864;24.990;2023-03-05T21:49:51;3.70;;;0.55;;
30062;SDS011;16889;67.864;24.990;2023-03-05T21:54:37;1.33;;;0.65;;
30062;SDS011;16889;67.864;24.990;2023-03-05T21:59:23;1.42;;;0.70;;
30062;SDS011;16889;67.864;24.990;2023-03-05T22:04:09;10.23;;;1.08;;
30062;SDS011;16889;67.864;24.990;2023-03-05T22:08:55;3.53;;;1.20;;
30062;SDS011;16889;67.864;24.990;2023-03-05T22:13:41;7.20;;;0.80;;
30062;SDS011;16889;67.864;24.990;2023-03-05T22:18:29;8.65;;;0.98;;
30062;SDS011;16889;67.864;24.990;2023-03-05T22:23:17;4.57;;;0.70;;
30062;SDS011;16889;67.864;24.990;2023-03-05T22:28:07;0.77;;;0.52;;
30062;SDS011;16889;67.864;24.990;2023-03-05T22:32:55;0.85;;;0.60;;
30062;SDS011;16889;67.864;24.990;2023-03-05T22:37:41;4.18;;;0.52;;
30062;SDS011;16889;67.864;24.990;2023-03-05T22:42:28;5.03;;;0.60;;
30062;SDS011;16889;67.864;24.990;2023-03-05T22:47:14;5.38;;;0.77;;
30062;SDS011;16889;67.864;24.990;2023-03-05T22:52:00;4.18;;;0.80;;
30062;SDS011;16889;67.864;24.990;2023-03-05T22:56:46;4.50;;;1.40;;
30062;SDS011;16889;67.864;24.990;2023-03-05T23:01:32;2.85;;;0.75;;
30062;SDS011;16889;67.864;24.990;2023-03-05T23:06:18;2.53;;;0.90;;
30062;SDS011;16889;67.864;24.990;2023-03-05T23:11:10;1.00;;;0.75;;
30062;SDS011;16889;67.864;24.990;2023-03-05T23:15:57;0.82;;;0.60;;
30062;SDS011;16889;67.864;24.990;2023-03-05T23:20:43;2.10;;;0.70;;
30062;SDS011;16889;67.864;24.990;2023-03-05T23:25:30;5.18;;;1.10;;
30062;SDS011;16889;67.864;24.990;2023-03-05T23:30:18;1.75;;;0.77;;
30062;SDS011;16889;67.864;24.990;2023-03-05T23:35:08;6.93;;;1.02;;
30062;SDS011;16889;67.864;24.990;2023-03-05T23:39:55;3.85;;;1.02;;
30062;SDS011;16889;67.864;24.990;2023-03-05T23:44:41;6.00;;;1.00;;
30062;SDS011;16889;67.864;24.990;2023-03-05T23:49:27;3.00;;;1.08;;
30062;SDS011;16889;67.864;24.990;2023-03-05T23:54:13;7.88;;;0.90;;
30062;SDS011;16889;67.864;24.990;2023-03-05T23:58:59;19.10;;;1.15;;
